Time;durP1;ratioP1;P1;durP2;ratioP2;P2;SDS_P1;SDS_P2;PMS_P1;PMS_P2;Temp;Humidity;BMP_temperature;BMP_pressure;BME280_temperature;BME280_humidity;BME280_pressure;Samples;Min_cycle;Max_cycle;Signal;HPM_P1;HPM_P2
2022/07/23 00:00:36;;;;;;;;;;;18.90;99.90;;;;;;5091257;28;19912;-77
2022/07/23 00:03:01;;;;;;;;;;;18.70;99.90;;;;;;5091377;28;20387;-76
2022/07/23 00:05:27;;;;;;;;;;;18.70;99.90;;;;;;5091075;28;19912;-76
2022/07/23 00:07:52;;;;;;;;;;;18.60;99.90;;;;;;5090868;28;20024;-77
2022/07/23 00:10:18;;;;;;;;;;;18.60;99.90;;;;;;5091257;28;19939;-77
2022/07/23 00:12:44;;;;;;;;;;;18.70;99.90;;;;;;5091248;28;19909;-76
2022/07/23 00:15:09;;;;;;;;;;;18.70;99.90;;;;;;5089002;22;20020;-81
2022/07/23 00:17:35;;;;;;;;;;;18.80;99.90;;;;;;5031828;28;19952;-81
2022/07/23 00:20:00;;;;;;;;;;;18.70;99.90;;;;;;5030967;28;19909;-82
2022/07/23 00:22:27;;;;;;;;;;;18.80;99.90;;;;;;5032317;28;19917;-81
2022/07/23 00:24:53;;;;;;;;;;;18.80;99.90;;;;;;5032269;28;19913;-81
2022/07/23 00:27:18;;;;;;;;;;;18.90;99.90;;;;;;5031812;28;20043;-81
2022/07/23 00:29:43;;;;;;;;;;;18.90;99.90;;;;;;5034673;28;20325;-81
2022/07/23 00:32:09;;;;;;;;;;;19.00;99.90;;;;;;5034874;28;19913;-81
2022/07/23 00:34:34;;;;;;;;;;;18.90;99.90;;;;;;5034802;28;19921;-81
2022/07/23 00:37:00;;;;;;;;;;;18.90;99.90;;;;;;5034353;28;19915;-81
2022/07/23 00:39:25;;;;;;;;;;;18.90;99.90;;;;;;5036561;28;19909;-81
2022/07/23 00:41:51;;;;;;;;;;;18.90;99.90;;;;;;5058029;28;19916;-82
2022/07/23 00:44:18;;;;;;;;;;;18.90;99.90;;;;;;5041181;28;19909;-82
2022/07/23 00:46:48;;;;;;;;;;;18.90;99.90;;;;;;5040689;28;19909;-81
2022/07/23 00:49:14;;;;;;;;;;;19.00;99.90;;;;;;5040331;28;19917;-81
2022/07/23 00:51:39;;;;;;;;;;;19.00;99.90;;;;;;5040415;28;19912;-82
2022/07/23 00:54:04;;;;;;;;;;;19.00;99.90;;;;;;5038686;28;19948;-82
2022/07/23 00:56:30;;;;;;;;;;;19.00;99.90;;;;;;5039704;28;19993;-82
2022/07/23 00:58:57;;;;;;;;;;;19.00;99.90;;;;;;5040180;28;19954;-82
2022/07/23 01:01:22;;;;;;;;;;;19.00;99.90;;;;;;5039809;28;19909;-82
2022/07/23 01:03:47;;;;;;;;;;;19.10;99.90;;;;;;5040572;28;20311;-82
2022/07/23 01:06:14;;;;;;;;;;;19.10;99.90;;;;;;5039609;28;19953;-82
2022/07/23 01:08:39;;;;;;;;;;;19.20;99.90;;;;;;5040220;28;19976;-82
2022/07/23 01:11:05;;;;;;;;;;;19.20;99.90;;;;;;5040020;28;19952;-82
2022/07/23 01:13:30;;;;;;;;;;;19.20;99.90;;;;;;5039634;28;20033;-82
2022/07/23 01:15:56;;;;;;;;;;;19.10;99.90;;;;;;5038718;28;19924;-81
2022/07/23 01:18:21;;;;;;;;;;;19.10;99.90;;;;;;5035401;28;19963;-81
2022/07/23 01:20:47;;;;;;;;;;;19.10;99.90;;;;;;5035138;28;19909;-81
2022/07/23 01:23:12;;;;;;;;;;;19.10;99.90;;;;;;5035253;28;19909;-81
2022/07/23 01:25:46;;;;;;;;;;;19.10;99.90;;;;;;5033521;28;20362;-81
2022/07/23 01:28:12;;;;;;;;;;;19.20;99.90;;;;;;5035055;28;20319;-81
2022/07/23 01:30:37;;;;;;;;;;;19.20;99.90;;;;;;5035071;28;20039;-81
2022/07/23 01:33:03;;;;;;;;;;;19.30;99.90;;;;;;5035023;28;19955;-80
2022/07/23 01:35:28;;;;;;;;;;;19.30;99.90;;;;;;5034783;28;19913;-81
2022/07/23 01:37:54;;;;;;;;;;;19.30;99.90;;;;;;5034633;28;19909;-81
2022/07/23 01:40:19;;;;;;;;;;;19.10;99.90;;;;;;5033044;28;20376;-81
2022/07/23 01:42:45;;;;;;;;;;;19.10;99.90;;;;;;5034839;28;20415;-80
2022/07/23 01:45:10;;;;;;;;;;;19.10;99.90;;;;;;5034693;28;19928;-81
2022/07/23 01:47:36;;;;;;;;;;;19.00;99.90;;;;;;5034869;28;19913;-82
2022/07/23 01:50:01;;;;;;;;;;;18.90;99.90;;;;;;5038249;28;19909;-82
2022/07/23 01:52:27;;;;;;;;;;;18.90;99.90;;;;;;5037785;28;20285;-82
2022/07/23 01:54:52;;;;;;;;;;;18.90;99.90;;;;;;5037431;28;19909;-82
2022/07/23 01:57:18;;;;;;;;;;;18.90;99.90;;;;;;5037329;28;19909;-82
2022/07/23 01:59:43;;;;;;;;;;;18.80;99.90;;;;;;5035836;28;19931;-81
2022/07/23 02:02:09;;;;;;;;;;;18.70;99.90;;;;;;5036236;28;19963;-82
2022/07/23 02:04:36;;;;;;;;;;;18.70;99.90;;;;;;5037225;28;19963;-82
2022/07/23 02:07:02;;;;;;;;;;;18.70;99.90;;;;;;5037259;28;20409;-82
2022/07/23 02:09:27;;;;;;;;;;;18.70;99.90;;;;;;5037370;28;19909;-82
2022/07/23 02:11:53;;;;;;;;;;;18.60;99.90;;;;;;5037386;28;19972;-82
2022/07/23 02:14:18;;;;;;;;;;;18.60;99.90;;;;;;5036808;28;19913;-81
2022/07/23 02:16:44;;;;;;;;;;;18.60;99.90;;;;;;5036563;28;19917;-82
2022/07/23 02:19:09;;;;;;;;;;;18.60;99.90;;;;;;5036742;28;19909;-82
2022/07/23 02:21:35;;;;;;;;;;;18.50;99.90;;;;;;5036798;28;19913;-82
2022/07/23 02:24:01;;;;;;;;;;;18.50;99.90;;;;;;5035003;28;20362;-81
2022/07/23 02:26:26;;;;;;;;;;;18.50;99.90;;;;;;5036085;28;19915;-81
2022/07/23 02:28:52;;;;;;;;;;;18.50;99.90;;;;;;5036488;28;19968;-82
2022/07/23 02:31:18;;;;;;;;;;;18.50;99.90;;;;;;5036408;28;19971;-82
2022/07/23 02:33:43;;;;;;;;;;;18.40;99.90;;;;;;5037432;28;20309;-82
2022/07/23 02:36:09;;;;;;;;;;;18.40;99.90;;;;;;5036168;28;19913;-82
2022/07/23 02:38:34;;;;;;;;;;;18.30;99.90;;;;;;5036972;28;19920;-82
2022/07/23 02:41:00;;;;;;;;;;;18.30;99.90;;;;;;5036045;28;19909;-82
2022/07/23 02:43:25;;;;;;;;;;;18.40;99.90;;;;;;5035985;28;19952;-82
2022/07/23 02:45:51;;;;;;;;;;;18.30;99.90;;;;;;5050109;28;19913;-82
2022/07/23 02:48:16;;;;;;;;;;;18.30;99.90;;;;;;5034181;28;19913;-82
2022/07/23 02:50:42;;;;;;;;;;;18.30;99.90;;;;;;5035387;28;19916;-81
2022/07/23 02:53:07;;;;;;;;;;;18.20;99.90;;;;;;5034617;28;19909;-82
2022/07/23 02:55:33;;;;;;;;;;;18.20;99.90;;;;;;5035027;28;20353;-81
2022/07/23 02:57:58;;;;;;;;;;;18.20;99.90;;;;;;5034926;28;20004;-81
2022/07/23 03:00:24;;;;;;;;;;;18.10;99.90;;;;;;5033877;28;19909;-81
2022/07/23 03:02:49;;;;;;;;;;;18.00;99.90;;;;;;5033559;28;19913;-81
2022/07/23 03:05:14;;;;;;;;;;;18.00;99.90;;;;;;5035072;28;19962;-82
2022/07/23 03:07:40;;;;;;;;;;;18.00;99.90;;;;;;5034261;28;19920;-82
2022/07/23 03:10:06;;;;;;;;;;;18.00;99.90;;;;;;5034777;28;19916;-82
2022/07/23 03:12:31;;;;;;;;;;;18.00;99.90;;;;;;5033955;28;19909;-82
2022/07/23 03:14:56;;;;;;;;;;;18.00;99.90;;;;;;5034097;28;19913;-81
2022/07/23 03:17:22;;;;;;;;;;;18.00;99.90;;;;;;5033982;28;19909;-81
2022/07/23 03:19:47;;;;;;;;;;;17.90;99.90;;;;;;5034155;28;19935;-81
2022/07/23 03:22:13;;;;;;;;;;;17.90;99.90;;;;;;5034058;28;20003;-81
2022/07/23 03:24:54;;;;;;;;;;;17.90;99.90;;;;;;5034234;28;19971;-81
2022/07/23 03:27:20;;;;;;;;;;;17.90;99.90;;;;;;5033562;28;20471;-82
2022/07/23 03:29:45;;;;;;;;;;;17.90;99.90;;;;;;5034235;28;19913;-82
2022/07/23 03:32:11;;;;;;;;;;;17.90;99.90;;;;;;5034072;28;19932;-81
2022/07/23 03:34:36;;;;;;;;;;;17.80;99.90;;;;;;5034005;28;19916;-82
2022/07/23 03:37:02;;;;;;;;;;;17.90;99.90;;;;;;5033641;28;19999;-81
2022/07/23 03:39:27;;;;;;;;;;;17.80;99.90;;;;;;5034051;28;19960;-82
2022/07/23 03:41:53;;;;;;;;;;;17.80;99.90;;;;;;5033842;28;19924;-81
2022/07/23 03:44:18;;;;;;;;;;;17.80;99.90;;;;;;5033451;28;19920;-82
2022/07/23 03:46:44;;;;;;;;;;;17.80;99.90;;;;;;5033014;28;19971;-82
2022/07/23 03:49:09;;;;;;;;;;;17.80;99.90;;;;;;5033293;28;19916;-82
2022/07/23 03:51:34;;;;;;;;;;;17.80;99.90;;;;;;5033541;28;19964;-81
2022/07/23 03:54:00;;;;;;;;;;;17.80;99.90;;;;;;5033522;28;20292;-82
2022/07/23 03:56:26;;;;;;;;;;;17.70;99.90;;;;;;5031596;28;19918;-81
2022/07/23 03:58:51;;;;;;;;;;;17.70;99.90;;;;;;5033435;28;19918;-81
2022/07/23 04:01:17;;;;;;;;;;;17.70;99.90;;;;;;5033392;28;20339;-81
2022/07/23 04:03:42;;;;;;;;;;;17.70;99.90;;;;;;5032599;28;19909;-81
2022/07/23 04:06:08;;;;;;;;;;;17.70;99.90;;;;;;5030905;28;19913;-81
2022/07/23 04:08:33;;;;;;;;;;;17.70;99.90;;;;;;5032336;28;19913;-82
2022/07/23 04:10:58;;;;;;;;;;;17.70;99.90;;;;;;5032380;28;20299;-81
2022/07/23 04:13:24;;;;;;;;;;;17.70;99.90;;;;;;5032594;28;19909;-81
2022/07/23 04:15:50;;;;;;;;;;;17.70;99.90;;;;;;5032060;28;19923;-81
2022/07/23 04:18:17;;;;;;;;;;;17.60;99.90;;;;;;5032377;28;19916;-81
2022/07/23 04:20:43;;;;;;;;;;;17.60;99.90;;;;;;5032509;28;19909;-81
2022/07/23 04:23:09;;;;;;;;;;;17.60;99.90;;;;;;5032465;28;20005;-81
2022/07/23 04:25:35;;;;;;;;;;;17.60;99.90;;;;;;5032126;28;19913;-81
2022/07/23 04:28:01;;;;;;;;;;;17.50;99.90;;;;;;5032107;28;19913;-81
2022/07/23 04:30:26;;;;;;;;;;;17.60;99.90;;;;;;5032398;28;19910;-81
2022/07/23 04:32:52;;;;;;;;;;;17.60;99.90;;;;;;5032162;28;19916;-81
2022/07/23 04:35:17;;;;;;;;;;;17.60;99.90;;;;;;5032207;28;19936;-81
2022/07/23 04:37:43;;;;;;;;;;;17.70;99.90;;;;;;5031880;28;19992;-81
2022/07/23 04:40:08;;;;;;;;;;;17.70;99.90;;;;;;5032289;28;19919;-80
2022/07/23 04:42:34;;;;;;;;;;;17.70;99.90;;;;;;5032044;28;19971;-81
2022/07/23 04:44:59;;;;;;;;;;;17.70;99.90;;;;;;5032008;28;19909;-81
2022/07/23 04:47:25;;;;;;;;;;;17.70;99.90;;;;;;5030385;28;19922;-81
2022/07/23 04:49:50;;;;;;;;;;;17.70;99.90;;;;;;5032113;28;20288;-81
2022/07/23 04:52:16;;;;;;;;;;;17.70;99.90;;;;;;5032103;28;19913;-81
2022/07/23 04:54:41;;;;;;;;;;;17.70;99.90;;;;;;5031801;28;19966;-81
2022/07/23 04:57:07;;;;;;;;;;;17.70;99.90;;;;;;5031762;28;19909;-81
2022/07/23 04:59:32;;;;;;;;;;;17.70;99.90;;;;;;5030682;28;19916;-81
2022/07/23 05:01:57;;;;;;;;;;;17.70;99.90;;;;;;5032099;28;19909;-81
2022/07/23 05:04:23;;;;;;;;;;;17.70;99.90;;;;;;5031750;28;20004;-81
2022/07/23 05:06:48;;;;;;;;;;;17.70;99.90;;;;;;5031665;28;19920;-81
2022/07/23 05:09:14;;;;;;;;;;;17.80;99.90;;;;;;5032091;28;20396;-81
2022/07/23 05:11:39;;;;;;;;;;;17.90;99.90;;;;;;5032211;28;19955;-81
2022/07/23 05:14:05;;;;;;;;;;;18.00;99.90;;;;;;5031753;28;19909;-81
2022/07/23 05:16:30;;;;;;;;;;;18.00;99.90;;;;;;5034917;28;19917;-81
2022/07/23 05:18:56;;;;;;;;;;;18.00;99.90;;;;;;5035509;28;19909;-81
2022/07/23 05:21:21;;;;;;;;;;;18.10;99.90;;;;;;5035221;28;20265;-81
2022/07/23 05:23:47;;;;;;;;;;;18.10;99.90;;;;;;5035351;28;19955;-81
2022/07/23 05:26:12;;;;;;;;;;;18.10;99.90;;;;;;5034966;28;19910;-81
2022/07/23 05:28:38;;;;;;;;;;;18.20;99.90;;;;;;5035172;28;19913;-81
2022/07/23 05:31:03;;;;;;;;;;;18.20;99.90;;;;;;5035042;28;20361;-81
2022/07/23 05:33:30;;;;;;;;;;;18.20;99.90;;;;;;5035179;28;19959;-81
2022/07/23 05:36:00;;;;;;;;;;;18.40;99.90;;;;;;5034765;28;19909;-81
2022/07/23 05:38:25;;;;;;;;;;;18.40;99.90;;;;;;5033610;28;20399;-81
2022/07/23 05:40:51;;;;;;;;;;;18.50;99.90;;;;;;5033774;28;19909;-81
2022/07/23 05:43:16;;;;;;;;;;;18.60;99.90;;;;;;5034844;28;19913;-81
2022/07/23 05:45:42;;;;;;;;;;;18.70;99.90;;;;;;5034588;28;19910;-81
2022/07/23 05:48:07;;;;;;;;;;;18.70;99.90;;;;;;5034827;28;20015;-81
2022/07/23 05:50:33;;;;;;;;;;;18.80;99.90;;;;;;5035030;28;19909;-81
2022/07/23 05:52:58;;;;;;;;;;;18.90;99.90;;;;;;5033403;28;19913;-81
2022/07/23 05:55:23;;;;;;;;;;;19.00;99.90;;;;;;5034640;28;19916;-81
2022/07/23 05:57:49;;;;;;;;;;;19.00;99.90;;;;;;5034429;28;20396;-81
2022/07/23 06:00:14;;;;;;;;;;;19.00;99.90;;;;;;5034621;28;19951;-82
2022/07/23 06:02:40;;;;;;;;;;;19.10;99.90;;;;;;5034545;28;19913;-81
2022/07/23 06:05:07;;;;;;;;;;;19.10;99.90;;;;;;5034609;28;20000;-81
2022/07/23 06:07:33;;;;;;;;;;;19.20;99.90;;;;;;5034043;28;19949;-80
2022/07/23 06:09:58;;;;;;;;;;;19.30;99.90;;;;;;5034426;28;19916;-81
2022/07/23 06:12:25;;;;;;;;;;;19.30;99.90;;;;;;5034397;28;19952;-81
2022/07/23 06:14:52;;;;;;;;;;;19.50;99.90;;;;;;5032952;28;19913;-82
2022/07/23 06:17:17;;;;;;;;;;;19.50;99.90;;;;;;5069991;22;20915;-78
2022/07/23 06:19:43;;;;;;;;;;;19.50;99.90;;;;;;5055650;28;19917;-79
2022/07/23 06:22:09;;;;;;;;;;;19.50;99.90;;;;;;5053756;28;20000;-79
2022/07/23 06:24:34;;;;;;;;;;;19.70;99.90;;;;;;5057598;28;19924;-78
2022/07/23 06:27:00;;;;;;;;;;;19.90;99.90;;;;;;5059666;28;19909;-78
2022/07/23 06:29:25;;;;;;;;;;;20.00;99.90;;;;;;5059149;28;20360;-79
2022/07/23 06:31:50;;;;;;;;;;;20.00;99.90;;;;;;5061081;28;19909;-80
2022/07/23 06:34:16;;;;;;;;;;;20.00;99.90;;;;;;5060987;28;19909;-78
2022/07/23 06:36:42;;;;;;;;;;;20.10;99.90;;;;;;5060382;28;20352;-78
2022/07/23 06:39:07;;;;;;;;;;;20.10;99.90;;;;;;5060221;28;19931;-78
2022/07/23 06:41:33;;;;;;;;;;;20.10;99.90;;;;;;5063044;28;19948;-78
2022/07/23 06:43:58;;;;;;;;;;;20.10;99.90;;;;;;5065209;28;19924;-78
2022/07/23 06:46:25;;;;;;;;;;;20.20;99.90;;;;;;5065716;28;19908;-78
2022/07/23 06:48:50;;;;;;;;;;;20.20;99.90;;;;;;5065042;28;20425;-78
2022/07/23 06:51:16;;;;;;;;;;;20.30;99.90;;;;;;5065007;28;19909;-80
2022/07/23 06:53:41;;;;;;;;;;;20.40;99.90;;;;;;5063101;28;19909;-78
2022/07/23 06:56:07;;;;;;;;;;;20.40;99.90;;;;;;5067121;28;19909;-78
2022/07/23 06:58:32;;;;;;;;;;;20.60;99.90;;;;;;5065904;28;19924;-78
2022/07/23 07:00:58;;;;;;;;;;;20.70;99.90;;;;;;5064870;28;19924;-79
2022/07/23 07:03:24;;;;;;;;;;;20.80;99.90;;;;;;5067838;28;19943;-78
2022/07/23 07:05:49;;;;;;;;;;;20.80;99.90;;;;;;5067341;28;19916;-79
2022/07/23 07:08:15;;;;;;;;;;;20.90;99.90;;;;;;5066155;28;19920;-79
2022/07/23 07:10:40;;;;;;;;;;;20.90;99.90;;;;;;5066833;28;19931;-79
2022/07/23 07:13:06;;;;;;;;;;;21.00;99.90;;;;;;5062862;28;19909;-80
2022/07/23 07:15:31;;;;;;;;;;;21.00;99.90;;;;;;5060077;28;20334;-79
2022/07/23 07:17:57;;;;;;;;;;;21.00;99.90;;;;;;5060047;28;19943;-79
2022/07/23 07:20:23;;;;;;;;;;;21.00;99.90;;;;;;5056535;28;20411;-79
2022/07/23 07:22:49;;;;;;;;;;;21.00;99.90;;;;;;5057062;28;19919;-79
2022/07/23 07:25:15;;;;;;;;;;;21.10;99.90;;;;;;5053070;28;19908;-79
2022/07/23 07:27:40;;;;;;;;;;;21.10;99.90;;;;;;5052030;28;19913;-80
2022/07/23 07:30:06;;;;;;;;;;;21.10;99.90;;;;;;5052037;28;19920;-79
2022/07/23 07:32:32;;;;;;;;;;;21.10;99.90;;;;;;5052166;28;19909;-79
2022/07/23 07:34:58;;;;;;;;;;;21.20;99.90;;;;;;5053542;28;20441;-79
2022/07/23 07:37:23;;;;;;;;;;;21.30;99.90;;;;;;5052552;28;20425;-79
2022/07/23 07:39:49;;;;;;;;;;;21.30;99.90;;;;;;5052955;28;19946;-79
2022/07/23 07:42:14;;;;;;;;;;;21.40;99.90;;;;;;5051555;28;19909;-79
2022/07/23 07:44:40;;;;;;;;;;;21.50;99.90;;;;;;5051337;28;19909;-79
2022/07/23 07:47:05;;;;;;;;;;;21.70;99.90;;;;;;5051504;28;20338;-79
2022/07/23 07:49:31;;;;;;;;;;;21.80;99.90;;;;;;5051716;28;20003;-80
2022/07/23 07:51:56;;;;;;;;;;;21.90;99.90;;;;;;5051696;28;20001;-79
2022/07/23 07:54:22;;;;;;;;;;;21.80;99.90;;;;;;5052377;28;19917;-78
2022/07/23 07:56:48;;;;;;;;;;;21.90;99.90;;;;;;5052305;28;19909;-79
2022/07/23 07:59:14;;;;;;;;;;;21.90;99.90;;;;;;5051174;28;19958;-78
2022/07/23 08:01:40;;;;;;;;;;;22.00;99.90;;;;;;5052491;28;19948;-78
2022/07/23 08:04:05;;;;;;;;;;;22.20;99.90;;;;;;5052445;28;20419;-78
2022/07/23 08:06:31;;;;;;;;;;;22.20;99.90;;;;;;5052072;28;19917;-79
2022/07/23 08:08:56;;;;;;;;;;;22.40;99.90;;;;;;5054014;28;20381;-79
2022/07/23 08:11:22;;;;;;;;;;;22.60;99.90;;;;;;5052645;28;19908;-79
2022/07/23 08:13:47;;;;;;;;;;;22.40;99.90;;;;;;5053712;28;19974;-78
2022/07/23 08:16:13;;;;;;;;;;;22.30;99.90;;;;;;5052531;28;19987;-77
2022/07/23 08:18:38;;;;;;;;;;;22.40;99.90;;;;;;5053940;28;19921;-78
2022/07/23 08:21:05;;;;;;;;;;;22.50;99.90;;;;;;5052775;28;20316;-78
2022/07/23 08:23:31;;;;;;;;;;;22.50;99.90;;;;;;5055258;28;19975;-78
2022/07/23 08:25:57;;;;;;;;;;;22.70;99.90;;;;;;5053687;28;19913;-79
2022/07/23 08:28:22;;;;;;;;;;;22.90;99.90;;;;;;5053857;28;19958;-79
2022/07/23 08:30:48;;;;;;;;;;;23.90;99.90;;;;;;5051746;28;19982;-80
2022/07/23 08:33:14;;;;;;;;;;;24.20;99.90;;;;;;5053721;28;19913;-79
2022/07/23 08:35:41;;;;;;;;;;;24.10;99.90;;;;;;5052905;28;20285;-79
2022/07/23 08:38:08;;;;;;;;;;;25.50;99.90;;;;;;5051321;28;19970;-79
2022/07/23 08:40:34;;;;;;;;;;;27.20;99.90;;;;;;5053070;28;19909;-80
2022/07/23 08:43:04;;;;;;;;;;;28.60;99.90;;;;;;5053622;28;20372;-81
2022/07/23 08:45:29;;;;;;;;;;;29.50;99.90;;;;;;5052585;28;19916;-79
2022/07/23 08:47:58;;;;;;;;;;;30.50;99.90;;;;;;5052008;28;19913;-79
2022/07/23 08:50:24;;;;;;;;;;;31.50;99.90;;;;;;5053067;28;19932;-78
2022/07/23 08:52:50;;;;;;;;;;;31.60;99.90;;;;;;5056947;28;20295;-79
2022/07/23 08:55:19;;;;;;;;;;;31.10;99.90;;;;;;5057203;28;19953;-79
2022/07/23 08:57:47;;;;;;;;;;;31.40;99.90;;;;;;5056725;28;19909;-80
2022/07/23 09:00:13;;;;;;;;;;;31.00;99.90;;;;;;5056740;28;19963;-79
2022/07/23 09:02:39;;;;;;;;;;;31.70;99.90;;;;;;5054887;28;19912;-80
2022/07/23 09:05:06;;;;;;;;;;;31.40;99.30;;;;;;5056509;28;19909;-79
2022/07/23 09:07:31;;;;;;;;;;;31.40;99.90;;;;;;5055598;28;20334;-80
2022/07/23 09:10:05;;;;;;;;;;;32.40;96.30;;;;;;5054885;28;19966;-81
2022/07/23 09:12:30;;;;;;;;;;;33.20;94.80;;;;;;5047361;28;19978;-80
2022/07/23 09:15:02;;;;;;;;;;;34.20;92.10;;;;;;5051320;28;19919;-84
2022/07/23 09:17:35;;;;;;;;;;;35.10;91.00;;;;;;5057614;28;19913;-82
2022/07/23 09:20:11;;;;;;;;;;;35.90;89.80;;;;;;5056997;28;19909;-81
2022/07/23 09:22:36;;;;;;;;;;;36.50;82.50;;;;;;5057567;28;19909;-83
2022/07/23 09:25:06;;;;;;;;;;;37.10;76.30;;;;;;5046837;28;19955;-81
2022/07/23 09:27:49;;;;;;;;;;;37.30;67.40;;;;;;5051136;28;19963;-82
2022/07/23 09:30:15;;;;;;;;;;;37.50;65.20;;;;;;5051437;28;19918;-82
2022/07/23 09:32:40;;;;;;;;;;;38.10;64.30;;;;;;5056718;28;20371;-82
2022/07/23 09:35:06;;;;;;;;;;;37.90;62.50;;;;;;5055692;28;19920;-82
2022/07/23 09:37:32;;;;;;;;;;;38.10;61.80;;;;;;5057198;28;19973;-81
2022/07/23 09:40:08;;;;;;;;;;;38.70;58.10;;;;;;5051719;28;19913;-81
2022/07/23 09:42:34;;;;;;;;;;;38.80;54.60;;;;;;5052315;28;19955;-82
2022/07/23 09:45:00;;;;;;;;;;;38.90;53.60;;;;;;5058588;28;19909;-81
2022/07/23 09:47:27;;;;;;;;;;;38.80;51.90;;;;;;5058333;28;19913;-82
2022/07/23 09:50:08;;;;;;;;;;;38.20;52.30;;;;;;5057634;28;20272;-83
2022/07/23 09:52:44;;;;;;;;;;;38.50;52.10;;;;;;5058901;28;19966;-83
2022/07/23 09:55:09;;;;;;;;;;;37.70;53.30;;;;;;5058555;28;20330;-82
2022/07/23 09:57:35;;;;;;;;;;;38.10;53.50;;;;;;5057365;28;19980;-82
2022/07/23 10:00:03;;;;;;;;;;;38.20;51.60;;;;;;5058743;28;19924;-84
2022/07/23 10:02:31;;;;;;;;;;;38.60;51.70;;;;;;5056365;28;19943;-83
2022/07/23 10:04:57;;;;;;;;;;;39.30;50.40;;;;;;5058356;28;19913;-83
2022/07/23 10:07:26;;;;;;;;;;;39.50;48.60;;;;;;5057075;28;19966;-82
2022/07/23 10:09:52;;;;;;;;;;;40.50;49.60;;;;;;5057302;28;19908;-82
2022/07/23 10:14:56;;;;;;;;;;;40.80;48.70;;;;;;5054021;28;19909;-81
2022/07/23 10:17:21;;;;;;;;;;;41.30;46.10;;;;;;5054553;28;19913;-82
2022/07/23 10:19:47;;;;;;;;;;;41.70;45.70;;;;;;5056193;28;19932;-82
2022/07/23 10:22:14;;;;;;;;;;;41.80;46.30;;;;;;5055948;28;19996;-86
2022/07/23 10:24:49;;;;;;;;;;;41.20;44.00;;;;;;5053177;28;20284;-82
2022/07/23 10:27:33;;;;;;;;;;;40.80;44.60;;;;;;5055679;28;19916;-82
2022/07/23 10:30:04;;;;;;;;;;;40.00;44.30;;;;;;5055089;28;19917;-82
2022/07/23 10:32:48;;;;;;;;;;;38.20;44.70;;;;;;5053485;28;19915;-82
2022/07/23 10:35:29;;;;;;;;;;;36.60;46.90;;;;;;5052734;28;20371;-82
2022/07/23 10:38:01;;;;;;;;;;;35.90;47.50;;;;;;5056657;28;19908;-82
2022/07/23 10:40:28;;;;;;;;;;;36.60;50.10;;;;;;5055906;28;19909;-84
2022/07/23 10:42:58;;;;;;;;;;;37.30;47.60;;;;;;5064031;28;19908;-86
2022/07/23 10:45:41;;;;;;;;;;;38.00;48.00;;;;;;5062970;28;20661;-85
2022/07/23 10:48:20;;;;;;;;;;;38.60;48.00;;;;;;5060675;28;20268;-84
2022/07/23 10:51:04;;;;;;;;;;;38.70;45.80;;;;;;5059327;28;19909;-84
2022/07/23 10:53:50;;;;;;;;;;;38.60;45.80;;;;;;5059702;28;20330;-86
2022/07/23 10:56:15;;;;;;;;;;;37.40;45.70;;;;;;5060553;28;19955;-84
2022/07/23 10:58:50;;;;;;;;;;;36.10;46.50;;;;;;5058872;28;20315;-84
2022/07/23 11:01:36;;;;;;;;;;;35.10;47.80;;;;;;5060947;28;19958;-85
2022/07/23 11:04:04;;;;;;;;;;;34.50;50.10;;;;;;5060435;28;19909;-84
2022/07/23 11:06:50;;;;;;;;;;;33.70;51.10;;;;;;5060696;28;20315;-83
2022/07/23 11:09:25;;;;;;;;;;;32.90;50.70;;;;;;5029989;28;19935;-83
2022/07/23 11:12:11;;;;;;;;;;;32.20;53.60;;;;;;5060389;28;19916;-83
2022/07/23 11:14:55;;;;;;;;;;;31.80;54.70;;;;;;5060616;28;19909;-84
2022/07/23 11:17:20;;;;;;;;;;;31.10;56.00;;;;;;5057689;28;19966;-85
2022/07/23 11:20:05;;;;;;;;;;;30.50;55.50;;;;;;5058139;28;20383;-83
2022/07/23 11:22:37;;;;;;;;;;;30.10;57.20;;;;;;5058208;28;19971;-84
2022/07/23 11:25:03;;;;;;;;;;;29.30;58.70;;;;;;5058658;28;19908;-85
2022/07/23 11:27:38;;;;;;;;;;;29.30;59.40;;;;;;5057318;28;19917;-85
2022/07/23 11:30:04;;;;;;;;;;;29.70;58.80;;;;;;5056716;28;20418;-83
2022/07/23 11:32:32;;;;;;;;;;;29.70;56.80;;;;;;5061599;28;19912;-83
2022/07/23 11:34:58;;;;;;;;;;;29.50;58.00;;;;;;5063030;28;19944;-83
2022/07/23 11:37:34;;;;;;;;;;;29.40;58.40;;;;;;5060696;28;19908;-82
2022/07/23 11:40:00;;;;;;;;;;;29.30;61.60;;;;;;5060058;28;19909;-82
2022/07/23 11:42:26;;;;;;;;;;;29.10;64.10;;;;;;5059857;28;20364;-83
2022/07/23 11:44:51;;;;;;;;;;;29.00;66.80;;;;;;5056312;28;19916;-82
2022/07/23 11:47:21;;;;;;;;;;;28.70;62.40;;;;;;5044761;28;19920;-82
2022/07/23 11:49:58;;;;;;;;;;;28.50;61.00;;;;;;5053165;28;19909;-83
2022/07/23 11:52:24;;;;;;;;;;;28.20;61.00;;;;;;5037088;28;20296;-83
2022/07/23 11:54:51;;;;;;;;;;;28.20;63.30;;;;;;5040004;28;20363;-83
2022/07/23 11:57:17;;;;;;;;;;;28.10;60.70;;;;;;5039675;28;19917;-82
2022/07/23 11:59:43;;;;;;;;;;;27.90;59.60;;;;;;5037930;28;19909;-83
2022/07/23 12:02:08;;;;;;;;;;;27.80;62.70;;;;;;5032925;28;20273;-82
2022/07/23 12:04:41;;;;;;;;;;;27.80;68.30;;;;;;5032155;28;20051;-83
2022/07/23 12:07:26;;;;;;;;;;;27.80;66.30;;;;;;5032651;28;19938;-82
2022/07/23 12:09:51;;;;;;;;;;;28.00;66.00;;;;;;5032991;28;19944;-82
2022/07/23 12:12:17;;;;;;;;;;;28.00;66.90;;;;;;5032715;28;19909;-82
2022/07/23 12:14:48;;;;;;;;;;;28.30;71.20;;;;;;5032557;28;20331;-82
2022/07/23 12:17:14;;;;;;;;;;;28.40;70.20;;;;;;5030879;28;19909;-82
2022/07/23 12:19:39;;;;;;;;;;;28.50;63.90;;;;;;5063886;22;19932;-78
2022/07/23 12:22:05;;;;;;;;;;;28.60;65.90;;;;;;5016293;28;20387;-77
2022/07/23 12:24:31;;;;;;;;;;;28.60;66.00;;;;;;5025112;28;19913;-77
2022/07/23 12:27:11;;;;;;;;;;;28.50;64.40;;;;;;5028376;28;19963;-78
2022/07/23 12:29:37;;;;;;;;;;;28.40;62.50;;;;;;5008661;28;19917;-78
2022/07/23 12:32:16;;;;;;;;;;;28.50;59.60;;;;;;5009027;28;20345;-77
2022/07/23 12:34:42;;;;;;;;;;;28.50;60.30;;;;;;5019119;28;19913;-74
2022/07/23 12:37:07;;;;;;;;;;;28.50;61.50;;;;;;4998215;28;20000;-74
2022/07/23 12:39:33;;;;;;;;;;;28.40;62.30;;;;;;4998585;28;19956;-74
2022/07/23 12:41:59;;;;;;;;;;;28.30;62.50;;;;;;4998726;28;19910;-74
2022/07/23 12:44:24;;;;;;;;;;;28.10;64.70;;;;;;4998468;28;19909;-74
2022/07/23 12:46:51;;;;;;;;;;;28.20;64.70;;;;;;4998087;28;20357;-75
2022/07/23 12:49:27;;;;;;;;;;;28.50;61.80;;;;;;4998118;28;19913;-74
2022/07/23 12:51:52;;;;;;;;;;;28.70;63.60;;;;;;4998009;28;19910;-75
2022/07/23 12:54:26;;;;;;;;;;;28.80;61.10;;;;;;4998038;28;20036;-75
2022/07/23 12:56:52;;;;;;;;;;;28.80;59.50;;;;;;5014203;28;19910;-75
2022/07/23 12:59:17;;;;;;;;;;;28.90;63.20;;;;;;4997907;28;20280;-74
2022/07/23 13:01:48;;;;;;;;;;;29.00;63.30;;;;;;4997555;28;19913;-75
2022/07/23 13:04:15;;;;;;;;;;;29.00;61.30;;;;;;4998066;28;20369;-75
2022/07/23 13:06:42;;;;;;;;;;;29.00;61.00;;;;;;4997838;28;20361;-75
2022/07/23 13:09:09;;;;;;;;;;;29.00;60.40;;;;;;4997762;28;20012;-74
2022/07/23 13:11:35;;;;;;;;;;;29.00;63.20;;;;;;5015171;28;19964;-75
2022/07/23 13:14:01;;;;;;;;;;;29.00;57.80;;;;;;4997736;28;19909;-75
2022/07/23 13:16:27;;;;;;;;;;;29.00;62.30;;;;;;4997083;28;19953;-75
2022/07/23 13:18:52;;;;;;;;;;;29.20;59.20;;;;;;4997075;28;19909;-75
2022/07/23 13:21:22;;;;;;;;;;;29.50;57.90;;;;;;4997421;28;19922;-75
2022/07/23 13:23:47;;;;;;;;;;;29.80;59.10;;;;;;4997788;28;19910;-75
2022/07/23 13:26:13;;;;;;;;;;;30.10;58.20;;;;;;4997366;28;19955;-75
2022/07/23 13:28:38;;;;;;;;;;;30.30;58.70;;;;;;4997526;28;19914;-75
2022/07/23 13:31:04;;;;;;;;;;;30.20;62.70;;;;;;4997480;28;19917;-74
2022/07/23 13:33:30;;;;;;;;;;;30.20;61.10;;;;;;4997178;28;19909;-75
2022/07/23 13:35:55;;;;;;;;;;;30.20;60.80;;;;;;4996353;28;19917;-76
2022/07/23 13:38:21;;;;;;;;;;;30.10;59.30;;;;;;4997049;28;20011;-75
2022/07/23 13:40:48;;;;;;;;;;;30.10;60.70;;;;;;4997203;28;19910;-74
2022/07/23 13:43:15;;;;;;;;;;;30.20;57.80;;;;;;4997209;28;19910;-75
2022/07/23 13:45:44;;;;;;;;;;;30.10;59.90;;;;;;4997141;28;19910;-74
2022/07/23 13:48:11;;;;;;;;;;;30.20;58.60;;;;;;4996779;28;19917;-75
2022/07/23 13:50:37;;;;;;;;;;;30.00;60.50;;;;;;4997500;28;19909;-75
2022/07/23 13:53:03;;;;;;;;;;;30.10;60.30;;;;;;4996862;28;19917;-75
2022/07/23 13:55:29;;;;;;;;;;;29.90;58.10;;;;;;4997211;28;20013;-75
2022/07/23 13:57:55;;;;;;;;;;;29.60;59.30;;;;;;4996975;28;19956;-75
2022/07/23 14:00:21;;;;;;;;;;;29.40;59.30;;;;;;4997060;28;19967;-75
2022/07/23 14:02:46;;;;;;;;;;;29.50;59.60;;;;;;4997344;28;20345;-75
2022/07/23 14:05:12;;;;;;;;;;;29.60;59.50;;;;;;4996736;28;19910;-75
2022/07/23 14:07:38;;;;;;;;;;;29.70;59.00;;;;;;4994641;28;19956;-75
2022/07/23 14:10:04;;;;;;;;;;;29.50;59.10;;;;;;4996553;28;19933;-75
2022/07/23 14:12:30;;;;;;;;;;;29.60;58.40;;;;;;4990312;28;19918;-75
2022/07/23 14:14:56;;;;;;;;;;;29.60;59.10;;;;;;5001853;28;20392;-75
2022/07/23 14:17:22;;;;;;;;;;;29.60;59.60;;;;;;4995422;28;19920;-74